sensor_id;sensor_type;location;lat;lon;timestamp;temperature;humidity
10042;DHT22;5061;49.068;12.058;2023-05-09T00:00:44;12.80;99.90
10042;DHT22;5061;49.068;12.058;2023-05-09T00:04:06;12.70;99.90
10042;DHT22;5061;49.068;12.058;2023-05-09T00:07:27;12.70;99.90
10042;DHT22;5061;49.068;12.058;2023-05-09T00:10:48;12.70;99.90
10042;DHT22;5061;49.068;12.058;2023-05-09T00:14:10;12.70;99.90
10042;DHT22;5061;49.068;12.058;2023-05-09T00:17:33;12.70;99.90
10042;DHT22;5061;49.068;12.058;2023-05-09T00:20:56;12.70;99.90
10042;DHT22;5061;49.068;12.058;2023-05-09T00:24:17;12.70;99.90
10042;DHT22;5061;49.068;12.058;2023-05-09T00:27:38;12.70;99.90
10042;DHT22;5061;49.068;12.058;2023-05-09T00:30:59;12.70;99.90
10042;DHT22;5061;49.068;12.058;2023-05-09T00:34:20;12.60;99.90
10042;DHT22;5061;49.068;12.058;2023-05-09T00:37:41;12.60;99.90
10042;DHT22;5061;49.068;12.058;2023-05-09T00:41:03;12.60;99.90
10042;DHT22;5061;49.068;12.058;2023-05-09T00:44:24;12.60;99.90
10042;DHT22;5061;49.068;12.058;2023-05-09T00:47:46;12.60;99.90
10042;DHT22;5061;49.068;12.058;2023-05-09T00:51:07;12.60;99.90
10042;DHT22;5061;49.068;12.058;2023-05-09T00:54:28;12.60;99.90
10042;DHT22;5061;49.068;12.058;2023-05-09T00:57:49;12.60;99.90
10042;DHT22;5061;49.068;12.058;2023-05-09T01:01:11;12.60;99.90
10042;DHT22;5061;49.068;12.058;2023-05-09T01:04:32;12.50;99.90
10042;DHT22;5061;49.068;12.058;2023-05-09T01:15:49;12.50;99.90
10042;DHT22;5061;49.068;12.058;2023-05-09T01:19:25;12.50;99.90
10042;DHT22;5061;49.068;12.058;2023-05-09T01:22:54;12.50;99.90
10042;DHT22;5061;49.068;12.058;2023-05-09T01:29:47;12.50;99.90
10042;DHT22;5061;49.068;12.058;2023-05-09T01:33:09;12.40;99.90
10042;DHT22;5061;49.068;12.058;2023-05-09T01:36:35;12.40;99.90
10042;DHT22;5061;49.068;12.058;2023-05-09T01:39:59;12.40;99.90
10042;DHT22;5061;49.068;12.058;2023-05-09T01:43:26;12.40;99.90
10042;DHT22;5061;49.068;12.058;2023-05-09T01:46:49;12.40;99.90
10042;DHT22;5061;49.068;12.058;2023-05-09T01:50:11;12.40;99.90
10042;DHT22;5061;49.068;12.058;2023-05-09T01:53:34;12.40;99.90
10042;DHT22;5061;49.068;12.058;2023-05-09T01:56:55;12.30;99.90
10042;DHT22;5061;49.068;12.058;2023-05-09T02:00:17;12.30;99.90
10042;DHT22;5061;49.068;12.058;2023-05-09T02:03:39;12.30;99.90
10042;DHT22;5061;49.068;12.058;2023-05-09T02:07:03;12.30;99.90
10042;DHT22;5061;49.068;12.058;2023-05-09T02:10:28;12.30;99.90
10042;DHT22;5061;49.068;12.058;2023-05-09T02:13:50;12.20;99.90
10042;DHT22;5061;49.068;12.058;2023-05-09T02:17:10;12.20;99.90
10042;DHT22;5061;49.068;12.058;2023-05-09T02:20:36;12.20;99.90
10042;DHT22;5061;49.068;12.058;2023-05-09T02:23:57;12.20;99.90
10042;DHT22;5061;49.068;12.058;2023-05-09T02:27:18;12.20;99.90
10042;DHT22;5061;49.068;12.058;2023-05-09T02:30:41;12.10;99.90
10042;DHT22;5061;49.068;12.058;2023-05-09T02:34:04;12.10;99.90
10042;DHT22;5061;49.068;12.058;2023-05-09T02:37:26;12.10;99.90
10042;DHT22;5061;49.068;12.058;2023-05-09T02:40:47;12.10;99.90
10042;DHT22;5061;49.068;12.058;2023-05-09T02:44:10;12.10;99.90
10042;DHT22;5061;49.068;12.058;2023-05-09T02:47:30;12.00;99.90
10042;DHT22;5061;49.068;12.058;2023-05-09T02:50:51;12.00;99.90
10042;DHT22;5061;49.068;12.058;2023-05-09T02:54:12;12.00;99.90
10042;DHT22;5061;49.068;12.058;2023-05-09T02:57:32;12.00;99.90
10042;DHT22;5061;49.068;12.058;2023-05-09T03:00:53;11.90;99.90
10042;DHT22;5061;49.068;12.058;2023-05-09T03:04:14;11.90;99.90
10042;DHT22;5061;49.068;12.058;2023-05-09T03:07:35;11.90;99.90
10042;DHT22;5061;49.068;12.058;2023-05-09T03:10:56;11.90;99.90
10042;DHT22;5061;49.068;12.058;2023-05-09T03:14:17;11.80;99.90
10042;DHT22;5061;49.068;12.058;2023-05-09T03:17:37;11.90;99.90
10042;DHT22;5061;49.068;12.058;2023-05-09T03:20:58;11.80;99.90
10042;DHT22;5061;49.068;12.058;2023-05-09T03:24:18;11.80;99.90
10042;DHT22;5061;49.068;12.058;2023-05-09T03:27:39;11.80;99.90
10042;DHT22;5061;49.068;12.058;2023-05-09T03:31:00;11.80;99.90
10042;DHT22;5061;49.068;12.058;2023-05-09T03:34:20;11.80;99.90
10042;DHT22;5061;49.068;12.058;2023-05-09T03:37:41;11.70;99.90
10042;DHT22;5061;49.068;12.058;2023-05-09T03:41:02;11.70;99.90
10042;DHT22;5061;49.068;12.058;2023-05-09T03:44:23;11.70;99.90
10042;DHT22;5061;49.068;12.058;2023-05-09T03:47:43;11.70;99.90
10042;DHT22;5061;49.068;12.058;2023-05-09T03:51:05;11.70;99.90
10042;DHT22;5061;49.068;12.058;2023-05-09T03:54:26;11.60;99.90
10042;DHT22;5061;49.068;12.058;2023-05-09T03:57:47;11.60;99.90
10042;DHT22;5061;49.068;12.058;2023-05-09T04:01:08;11.60;99.90
10042;DHT22;5061;49.068;12.058;2023-05-09T04:04:29;11.60;99.90
10042;DHT22;5061;49.068;12.058;2023-05-09T04:07:50;11.60;99.90
10042;DHT22;5061;49.068;12.058;2023-05-09T04:11:11;11.60;99.90
10042;DHT22;5061;49.068;12.058;2023-05-09T04:14:32;11.60;99.90
10042;DHT22;5061;49.068;12.058;2023-05-09T04:17:53;11.60;99.90
10042;DHT22;5061;49.068;12.058;2023-05-09T04:21:14;11.60;99.90
10042;DHT22;5061;49.068;12.058;2023-05-09T04:24:35;11.60;99.90
10042;DHT22;5061;49.068;12.058;2023-05-09T04:27:56;11.60;99.90
10042;DHT22;5061;49.068;12.058;2023-05-09T04:31:17;11.60;99.90
10042;DHT22;5061;49.068;12.058;2023-05-09T04:34:38;11.60;99.90
10042;DHT22;5061;49.068;12.058;2023-05-09T04:37:59;11.70;99.90
10042;DHT22;5061;49.068;12.058;2023-05-09T04:41:21;11.70;99.90
10042;DHT22;5061;49.068;12.058;2023-05-09T04:44:42;11.70;99.90
10042;DHT22;5061;49.068;12.058;2023-05-09T04:48:03;11.70;99.90
10042;DHT22;5061;49.068;12.058;2023-05-09T04:51:24;11.80;99.90
10042;DHT22;5061;49.068;12.058;2023-05-09T04:54:45;11.80;99.90
10042;DHT22;5061;49.068;12.058;2023-05-09T04:58:08;11.90;99.90
10042;DHT22;5061;49.068;12.058;2023-05-09T05:01:29;11.90;99.90
10042;DHT22;5061;49.068;12.058;2023-05-09T05:04:50;12.00;99.90
10042;DHT22;5061;49.068;12.058;2023-05-09T05:08:11;12.00;99.90
10042;DHT22;5061;49.068;12.058;2023-05-09T05:11:32;12.00;99.90
10042;DHT22;5061;49.068;12.058;2023-05-09T05:14:53;12.10;99.90
10042;DHT22;5061;49.068;12.058;2023-05-09T05:18:14;12.20;99.90
10042;DHT22;5061;49.068;12.058;2023-05-09T05:21:35;12.30;99.90
10042;DHT22;5061;49.068;12.058;2023-05-09T05:24:56;12.50;99.90
10042;DHT22;5061;49.068;12.058;2023-05-09T05:28:16;12.60;99.90
10042;DHT22;5061;49.068;12.058;2023-05-09T05:31:37;12.70;99.90
10042;DHT22;5061;49.068;12.058;2023-05-09T05:34:58;12.80;99.90
10042;DHT22;5061;49.068;12.058;2023-05-09T05:38:22;12.90;99.90
10042;DHT22;5061;49.068;12.058;2023-05-09T05:41:42;13.00;99.90
10042;DHT22;5061;49.068;12.058;2023-05-09T05:45:03;13.10;99.90
10042;DHT22;5061;49.068;12.058;2023-05-09T05:48:25;13.20;99.90
10042;DHT22;5061;49.068;12.058;2023-05-09T05:51:46;13.30;99.90
10042;DHT22;5061;49.068;12.058;2023-05-09T05:55:07;13.40;99.90
10042;DHT22;5061;49.068;12.058;2023-05-09T05:58:28;13.50;99.90
10042;DHT22;5061;49.068;12.058;2023-05-09T06:01:49;13.50;99.90
10042;DHT22;5061;49.068;12.058;2023-05-09T06:05:11;13.60;99.90
10042;DHT22;5061;49.068;12.058;2023-05-09T06:08:32;13.60;99.90
10042;DHT22;5061;49.068;12.058;2023-05-09T06:11:53;13.60;99.90
10042;DHT22;5061;49.068;12.058;2023-05-09T06:15:14;13.60;99.90
10042;DHT22;5061;49.068;12.058;2023-05-09T06:18:35;13.60;99.90
10042;DHT22;5061;49.068;12.058;2023-05-09T06:21:57;13.60;99.90
10042;DHT22;5061;49.068;12.058;2023-05-09T06:25:18;13.50;99.90
10042;DHT22;5061;49.068;12.058;2023-05-09T06:28:38;13.50;99.90
10042;DHT22;5061;49.068;12.058;2023-05-09T06:31:59;13.40;99.90
10042;DHT22;5061;49.068;12.058;2023-05-09T06:35:20;13.30;99.90
10042;DHT22;5061;49.068;12.058;2023-05-09T06:38:41;13.30;99.90
10042;DHT22;5061;49.068;12.058;2023-05-09T06:42:01;13.20;99.90
10042;DHT22;5061;49.068;12.058;2023-05-09T06:45:22;13.20;99.90
10042;DHT22;5061;49.068;12.058;2023-05-09T06:48:43;13.20;99.90
10042;DHT22;5061;49.068;12.058;2023-05-09T06:52:04;13.20;99.90
10042;DHT22;5061;49.068;12.058;2023-05-09T06:55:25;13.10;99.90
10042;DHT22;5061;49.068;12.058;2023-05-09T06:58:46;13.20;99.90
10042;DHT22;5061;49.068;12.058;2023-05-09T07:02:10;13.10;99.90
10042;DHT22;5061;49.068;12.058;2023-05-09T07:05:31;13.20;99.90
10042;DHT22;5061;49.068;12.058;2023-05-09T07:08:52;13.10;99.90
10042;DHT22;5061;49.068;12.058;2023-05-09T07:12:13;13.10;99.90
10042;DHT22;5061;49.068;12.058;2023-05-09T07:15:34;13.10;99.90
10042;DHT22;5061;49.068;12.058;2023-05-09T07:18:55;13.10;99.90
10042;DHT22;5061;49.068;12.058;2023-05-09T07:22:16;13.10;99.90
10042;DHT22;5061;49.068;12.058;2023-05-09T07:25:38;13.20;99.90
10042;DHT22;5061;49.068;12.058;2023-05-09T07:28:58;13.20;99.90
10042;DHT22;5061;49.068;12.058;2023-05-09T07:32:20;13.20;99.90
10042;DHT22;5061;49.068;12.058;2023-05-09T07:35:41;13.20;99.90
10042;DHT22;5061;49.068;12.058;2023-05-09T07:39:02;13.20;99.90
10042;DHT22;5061;49.068;12.058;2023-05-09T07:42:24;13.20;99.90
10042;DHT22;5061;49.068;12.058;2023-05-09T07:45:45;13.20;99.90
10042;DHT22;5061;49.068;12.058;2023-05-09T07:49:06;13.20;99.90
10042;DHT22;5061;49.068;12.058;2023-05-09T07:52:27;13.20;99.90
10042;DHT22;5061;49.068;12.058;2023-05-09T07:55:48;13.30;99.90
10042;DHT22;5061;49.068;12.058;2023-05-09T07:59:09;13.30;99.90
10042;DHT22;5061;49.068;12.058;2023-05-09T08:02:31;13.30;99.90
10042;DHT22;5061;49.068;12.058;2023-05-09T08:05:53;13.30;99.90
10042;DHT22;5061;49.068;12.058;2023-05-09T08:09:17;13.30;99.90
10042;DHT22;5061;49.068;12.058;2023-05-09T08:12:38;13.40;99.90
10042;DHT22;5061;49.068;12.058;2023-05-09T08:16:00;13.40;99.90
10042;DHT22;5061;49.068;12.058;2023-05-09T08:19:21;13.50;99.90
10042;DHT22;5061;49.068;12.058;2023-05-09T08:22:45;13.50;99.90
10042;DHT22;5061;49.068;12.058;2023-05-09T08:26:06;13.50;99.90
10042;DHT22;5061;49.068;12.058;2023-05-09T08:29:27;13.60;99.90
10042;DHT22;5061;49.068;12.058;2023-05-09T08:32:49;13.60;99.90
10042;DHT22;5061;49.068;12.058;2023-05-09T08:36:09;13.70;99.90
10042;DHT22;5061;49.068;12.058;2023-05-09T08:39:30;13.80;99.90
10042;DHT22;5061;49.068;12.058;2023-05-09T08:42:54;13.80;99.90
10042;DHT22;5061;49.068;12.058;2023-05-09T08:46:27;13.80;99.90
10042;DHT22;5061;49.068;12.058;2023-05-09T08:49:50;13.90;99.90
10042;DHT22;5061;49.068;12.058;2023-05-09T08:53:12;14.00;99.90
10042;DHT22;5061;49.068;12.058;2023-05-09T08:56:34;14.00;99.90
10042;DHT22;5061;49.068;12.058;2023-05-09T08:59:55;14.10;99.90
10042;DHT22;5061;49.068;12.058;2023-05-09T09:03:16;14.20;99.90
10042;DHT22;5061;49.068;12.058;2023-05-09T09:06:38;14.30;99.90
10042;DHT22;5061;49.068;12.058;2023-05-09T09:10:05;14.40;99.90
10042;DHT22;5061;49.068;12.058;2023-05-09T09:13:30;14.50;99.90
10042;DHT22;5061;49.068;12.058;2023-05-09T09:16:53;14.60;99.90
10042;DHT22;5061;49.068;12.058;2023-05-09T09:20:15;14.70;99.90
10042;DHT22;5061;49.068;12.058;2023-05-09T09:23:42;14.80;99.90
10042;DHT22;5061;49.068;12.058;2023-05-09T09:27:06;14.90;99.90
10042;DHT22;5061;49.068;12.058;2023-05-09T09:30:28;15.10;99.90
10042;DHT22;5061;49.068;12.058;2023-05-09T09:33:48;15.30;99.90
10042;DHT22;5061;49.068;12.058;2023-05-09T09:37:20;15.40;99.90
10042;DHT22;5061;49.068;12.058;2023-05-09T09:40:52;15.60;99.90
10042;DHT22;5061;49.068;12.058;2023-05-09T09:44:15;15.80;99.90
10042;DHT22;5061;49.068;12.058;2023-05-09T09:47:36;15.90;99.90
10042;DHT22;5061;49.068;12.058;2023-05-09T09:51:19;16.00;99.90
10042;DHT22;5061;49.068;12.058;2023-05-09T09:54:40;16.20;99.90
10042;DHT22;5061;49.068;12.058;2023-05-09T09:58:01;16.30;99.60
10042;DHT22;5061;49.068;12.058;2023-05-09T10:01:21;16.40;99.70
10042;DHT22;5061;49.068;12.058;2023-05-09T10:04:43;16.60;99.90
10042;DHT22;5061;49.068;12.058;2023-05-09T10:08:04;16.70;99.80
10042;DHT22;5061;49.068;12.058;2023-05-09T10:11:27;16.90;99.90
10042;DHT22;5061;49.068;12.058;2023-05-09T10:14:48;17.00;99.90
10042;DHT22;5061;49.068;12.058;2023-05-09T10:18:09;17.20;99.90
10042;DHT22;5061;49.068;12.058;2023-05-09T10:21:31;17.30;99.70
10042;DHT22;5061;49.068;12.058;2023-05-09T10:25:05;17.40;99.30
10042;DHT22;5061;49.068;12.058;2023-05-09T10:28:31;17.50;99.00
10042;DHT22;5061;49.068;12.058;2023-05-09T10:31:58;17.60;98.80
10042;DHT22;5061;49.068;12.058;2023-05-09T10:35:26;17.70;97.40
10042;DHT22;5061;49.068;12.058;2023-05-09T10:38:48;17.80;97.90
10042;DHT22;5061;49.068;12.058;2023-05-09T10:42:12;17.90;95.70
10042;DHT22;5061;49.068;12.058;2023-05-09T10:45:33;18.10;96.00
10042;DHT22;5061;49.068;12.058;2023-05-09T10:48:58;18.20;97.50
10042;DHT22;5061;49.068;12.058;2023-05-09T10:52:22;18.40;96.20
10042;DHT22;5061;49.068;12.058;2023-05-09T10:59:34;18.70;96.50
10042;DHT22;5061;49.068;12.058;2023-05-09T11:03:11;18.90;97.90
10042;DHT22;5061;49.068;12.058;2023-05-09T11:06:42;19.00;98.80
10042;DHT22;5061;49.068;12.058;2023-05-09T11:10:11;19.10;96.10
10042;DHT22;5061;49.068;12.058;2023-05-09T11:13:36;19.20;96.60
10042;DHT22;5061;49.068;12.058;2023-05-09T11:17:03;19.30;93.30
10042;DHT22;5061;49.068;12.058;2023-05-09T11:20:31;19.40;94.60
10042;DHT22;5061;49.068;12.058;2023-05-09T11:23:53;19.50;94.80
10042;DHT22;5061;49.068;12.058;2023-05-09T11:27:19;19.60;96.20
10042;DHT22;5061;49.068;12.058;2023-05-09T11:30:43;19.80;95.00
10042;DHT22;5061;49.068;12.058;2023-05-09T11:34:05;19.90;94.00
10042;DHT22;5061;49.068;12.058;2023-05-09T11:37:30;20.00;96.50
10042;DHT22;5061;49.068;12.058;2023-05-09T11:40:52;20.10;94.80
10042;DHT22;5061;49.068;12.058;2023-05-09T11:44:18;20.20;95.80
10042;DHT22;5061;49.068;12.058;2023-05-09T11:47:43;20.20;94.60
10042;DHT22;5061;49.068;12.058;2023-05-09T11:51:15;20.30;93.70
10042;DHT22;5061;49.068;12.058;2023-05-09T11:54:42;20.40;93.40
10042;DHT22;5061;49.068;12.058;2023-05-09T11:58:06;20.50;94.00
10042;DHT22;5061;49.068;12.058;2023-05-09T12:01:30;20.60;94.30
10042;DHT22;5061;49.068;12.058;2023-05-09T12:04:52;20.60;92.70
10042;DHT22;5061;49.068;12.058;2023-05-09T12:08:15;20.70;94.60
10042;DHT22;5061;49.068;12.058;2023-05-09T12:11:49;20.80;95.00
10042;DHT22;5061;49.068;12.058;2023-05-09T12:15:11;20.90;97.20
10042;DHT22;5061;49.068;12.058;2023-05-09T12:18:33;21.00;94.90
10042;DHT22;5061;49.068;12.058;2023-05-09T12:21:59;21.10;92.90
10042;DHT22;5061;49.068;12.058;2023-05-09T12:25:21;21.20;92.90
10042;DHT22;5061;49.068;12.058;2023-05-09T12:28:42;21.40;96.10
10042;DHT22;5061;49.068;12.058;2023-05-09T12:32:04;21.50;93.70
10042;DHT22;5061;49.068;12.058;2023-05-09T12:35:26;21.50;96.80
10042;DHT22;5061;49.068;12.058;2023-05-09T12:38:54;21.70;95.90
10042;DHT22;5061;49.068;12.058;2023-05-09T12:42:15;21.80;92.00
10042;DHT22;5061;49.068;12.058;2023-05-09T12:45:38;21.90;92.90
10042;DHT22;5061;49.068;12.058;2023-05-09T12:48:59;22.00;93.90
10042;DHT22;5061;49.068;12.058;2023-05-09T12:52:21;22.20;92.10
10042;DHT22;5061;49.068;12.058;2023-05-09T12:55:54;22.30;92.20
10042;DHT22;5061;49.068;12.058;2023-05-09T12:59:19;22.50;94.70
10042;DHT22;5061;49.068;12.058;2023-05-09T13:02:40;22.60;89.90
10042;DHT22;5061;49.068;12.058;2023-05-09T13:06:04;22.70;92.90
10042;DHT22;5061;49.068;12.058;2023-05-09T13:09:29;22.80;94.30
10042;DHT22;5061;49.068;12.058;2023-05-09T13:12:51;22.80;93.20
10042;DHT22;5061;49.068;12.058;2023-05-09T13:16:13;22.90;92.40
10042;DHT22;5061;49.068;12.058;2023-05-09T13:19:34;22.90;92.60
10042;DHT22;5061;49.068;12.058;2023-05-09T13:22:59;23.00;91.70
10042;DHT22;5061;49.068;12.058;2023-05-09T13:26:23;22.90;92.90
10042;DHT22;5061;49.068;12.058;2023-05-09T13:29:45;22.90;91.70
10042;DHT22;5061;49.068;12.058;2023-05-09T13:33:07;22.90;92.10
10042;DHT22;5061;49.068;12.058;2023-05-09T13:36:28;22.90;88.40
10042;DHT22;5061;49.068;12.058;2023-05-09T13:39:49;22.90;91.50
10042;DHT22;5061;49.068;12.058;2023-05-09T13:43:17;23.00;92.60
10042;DHT22;5061;49.068;12.058;2023-05-09T13:46:38;23.00;91.50
10042;DHT22;5061;49.068;12.058;2023-05-09T13:49:59;23.10;91.90
10042;DHT22;5061;49.068;12.058;2023-05-09T13:53:23;23.20;92.90
10042;DHT22;5061;49.068;12.058;2023-05-09T13:56:44;23.40;91.90
10042;DHT22;5061;49.068;12.058;2023-05-09T14:00:06;23.60;93.10
10042;DHT22;5061;49.068;12.058;2023-05-09T14:03:30;23.70;92.80
10042;DHT22;5061;49.068;12.058;2023-05-09T14:06:58;23.80;94.00
10042;DHT22;5061;49.068;12.058;2023-05-09T14:10:20;23.80;93.30
10042;DHT22;5061;49.068;12.058;2023-05-09T14:13:48;23.80;92.40
10042;DHT22;5061;49.068;12.058;2023-05-09T14:17:09;23.80;91.20
10042;DHT22;5061;49.068;12.058;2023-05-09T14:20:31;23.80;96.10
10042;DHT22;5061;49.068;12.058;2023-05-09T14:23:52;23.90;96.90
10042;DHT22;5061;49.068;12.058;2023-05-09T14:27:13;23.90;94.20
10042;DHT22;5061;49.068;12.058;2023-05-09T14:30:35;23.90;94.10
10042;DHT22;5061;49.068;12.058;2023-05-09T14:33:56;23.80;91.10
10042;DHT22;5061;49.068;12.058;2023-05-09T14:37:19;23.70;93.60
10042;DHT22;5061;49.068;12.058;2023-05-09T14:40:40;23.70;95.90
10042;DHT22;5061;49.068;12.058;2023-05-09T14:44:01;23.70;92.60
10042;DHT22;5061;49.068;12.058;2023-05-09T14:47:23;23.70;93.40
10042;DHT22;5061;49.068;12.058;2023-05-09T14:50:45;23.70;92.70
10042;DHT22;5061;49.068;12.058;2023-05-09T14:54:06;23.70;91.30
10042;DHT22;5061;49.068;12.058;2023-05-09T14:57:31;23.70;92.70
10042;DHT22;5061;49.068;12.058;2023-05-09T15:00:54;23.70;92.80
10042;DHT22;5061;49.068;12.058;2023-05-09T15:04:16;23.70;92.30
10042;DHT22;5061;49.068;12.058;2023-05-09T15:07:37;23.80;92.50
10042;DHT22;5061;49.068;12.058;2023-05-09T15:10:58;23.80;91.10
10042;DHT22;5061;49.068;12.058;2023-05-09T15:14:19;23.80;94.00
10042;DHT22;5061;49.068;12.058;2023-05-09T15:17:50;23.80;93.00
10042;DHT22;5061;49.068;12.058;2023-05-09T15:21:16;23.70;94.80
10042;DHT22;5061;49.068;12.058;2023-05-09T15:24:47;23.70;91.80
10042;DHT22;5061;49.068;12.058;2023-05-09T15:28:08;23.70;91.30
10042;DHT22;5061;49.068;12.058;2023-05-09T15:31:38;23.60;93.00
10042;DHT22;5061;49.068;12.058;2023-05-09T15:35:05;23.40;91.50
10042;DHT22;5061;49.068;12.058;2023-05-09T15:38:27;23.40;86.70
10042;DHT22;5061;49.068;12.058;2023-05-09T15:41:48;23.30;90.60
10042;DHT22;5061;49.068;12.058;2023-05-09T15:45:09;23.20;92.70
10042;DHT22;5061;49.068;12.058;2023-05-09T15:48:30;23.30;91.70
10042;DHT22;5061;49.068;12.058;2023-05-09T15:51:52;23.30;91.20
10042;DHT22;5061;49.068;12.058;2023-05-09T15:55:13;23.30;88.60
10042;DHT22;5061;49.068;12.058;2023-05-09T15:58:34;23.20;90.50
10042;DHT22;5061;49.068;12.058;2023-05-09T16:01:55;23.10;89.60
10042;DHT22;5061;49.068;12.058;2023-05-09T16:05:16;22.90;92.00
10042;DHT22;5061;49.068;12.058;2023-05-09T16:08:38;22.80;91.90
10042;DHT22;5061;49.068;12.058;2023-05-09T16:11:59;22.70;91.30
10042;DHT22;5061;49.068;12.058;2023-05-09T16:15:20;22.70;92.70
10042;DHT22;5061;49.068;12.058;2023-05-09T16:18:41;22.70;92.60
10042;DHT22;5061;49.068;12.058;2023-05-09T16:22:02;22.60;87.80
10042;DHT22;5061;49.068;12.058;2023-05-09T16:25:27;22.60;90.60
10042;DHT22;5061;49.068;12.058;2023-05-09T16:28:48;22.50;92.20
10042;DHT22;5061;49.068;12.058;2023-05-09T16:32:09;22.40;91.20
10042;DHT22;5061;49.068;12.058;2023-05-09T16:35:30;22.20;89.30
10042;DHT22;5061;49.068;12.058;2023-05-09T16:38:52;22.00;90.80
10042;DHT22;5061;49.068;12.058;2023-05-09T16:42:14;21.90;91.80
10042;DHT22;5061;49.068;12.058;2023-05-09T16:45:35;21.90;89.90
10042;DHT22;5061;49.068;12.058;2023-05-09T16:48:56;21.80;89.00
10042;DHT22;5061;49.068;12.058;2023-05-09T16:52:17;21.70;90.40
10042;DHT22;5061;49.068;12.058;2023-05-09T16:55:38;21.50;87.00
10042;DHT22;5061;49.068;12.058;2023-05-09T16:59:00;21.40;89.50
10042;DHT22;5061;49.068;12.058;2023-05-09T17:02:22;21.30;89.90
10042;DHT22;5061;49.068;12.058;2023-05-09T17:05:43;21.20;90.70
10042;DHT22;5061;49.068;12.058;2023-05-09T17:09:04;21.20;90.50
10042;DHT22;5061;49.068;12.058;2023-05-09T17:12:25;21.00;86.30
10042;DHT22;5061;49.068;12.058;2023-05-09T17:15:49;20.90;91.00
10042;DHT22;5061;49.068;12.058;2023-05-09T17:19:12;20.80;88.90
10042;DHT22;5061;49.068;12.058;2023-05-09T17:22:33;20.70;90.40
10042;DHT22;5061;49.068;12.058;2023-05-09T17:25:54;20.60;83.60
10042;DHT22;5061;49.068;12.058;2023-05-09T17:29:15;20.50;87.30
10042;DHT22;5061;49.068;12.058;2023-05-09T17:32:36;20.30;83.90
10042;DHT22;5061;49.068;12.058;2023-05-09T17:35:58;20.20;89.10
10042;DHT22;5061;49.068;12.058;2023-05-09T17:39:19;20.10;86.20
10042;DHT22;5061;49.068;12.058;2023-05-09T17:42:41;19.90;88.50
10042;DHT22;5061;49.068;12.058;2023-05-09T17:46:02;19.80;82.80
10042;DHT22;5061;49.068;12.058;2023-05-09T17:49:24;19.70;85.00
10042;DHT22;5061;49.068;12.058;2023-05-09T17:52:45;19.50;83.00
10042;DHT22;5061;49.068;12.058;2023-05-09T17:56:07;19.40;83.40
10042;DHT22;5061;49.068;12.058;2023-05-09T17:59:28;19.30;85.30
10042;DHT22;5061;49.068;12.058;2023-05-09T18:02:49;19.20;86.00
10042;DHT22;5061;49.068;12.058;2023-05-09T18:06:11;19.10;85.00
10042;DHT22;5061;49.068;12.058;2023-05-09T18:09:32;18.90;88.70
10042;DHT22;5061;49.068;12.058;2023-05-09T18:12:54;18.90;87.40
10042;DHT22;5061;49.068;12.058;2023-05-09T18:16:15;18.80;86.30
10042;DHT22;5061;49.068;12.058;2023-05-09T18:19:36;18.70;87.40
10042;DHT22;5061;49.068;12.058;2023-05-09T18:23:00;18.50;88.00
10042;DHT22;5061;49.068;12.058;2023-05-09T18:26:24;18.40;87.70
10042;DHT22;5061;49.068;12.058;2023-05-09T18:29:47;18.30;87.80
10042;DHT22;5061;49.068;12.058;2023-05-09T18:33:08;18.20;90.10
10042;DHT22;5061;49.068;12.058;2023-05-09T18:36:29;18.10;90.30
10042;DHT22;5061;49.068;12.058;2023-05-09T18:39:50;18.00;89.70
10042;DHT22;5061;49.068;12.058;2023-05-09T18:43:11;17.90;87.90
10042;DHT22;5061;49.068;12.058;2023-05-09T18:46:32;17.80;86.50
10042;DHT22;5061;49.068;12.058;2023-05-09T18:49:53;17.70;88.90
10042;DHT22;5061;49.068;12.058;2023-05-09T18:53:14;17.60;90.40
10042;DHT22;5061;49.068;12.058;2023-05-09T18:56:35;17.50;90.10
10042;DHT22;5061;49.068;12.058;2023-05-09T18:59:58;17.50;88.60
10042;DHT22;5061;49.068;12.058;2023-05-09T19:03:19;17.40;89.60
10042;DHT22;5061;49.068;12.058;2023-05-09T19:06:40;17.30;88.80
10042;DHT22;5061;49.068;12.058;2023-05-09T19:10:02;17.20;89.50
10042;DHT22;5061;49.068;12.058;2023-05-09T19:13:24;17.20;89.40
10042;DHT22;5061;49.068;12.058;2023-05-09T19:16:45;17.10;89.30
10042;DHT22;5061;49.068;12.058;2023-05-09T19:20:07;17.00;89.40
10042;DHT22;5061;49.068;12.058;2023-05-09T19:23:31;17.00;87.50
10042;DHT22;5061;49.068;12.058;2023-05-09T19:26:52;16.90;87.90
10042;DHT22;5061;49.068;12.058;2023-05-09T19:30:14;16.80;90.20
10042;DHT22;5061;49.068;12.058;2023-05-09T19:33:35;16.70;87.90
10042;DHT22;5061;49.068;12.058;2023-05-09T19:36:56;16.60;88.80
10042;DHT22;5061;49.068;12.058;2023-05-09T19:40:17;16.60;86.90
10042;DHT22;5061;49.068;12.058;2023-05-09T19:43:38;16.50;89.30
10042;DHT22;5061;49.068;12.058;2023-05-09T19:46:59;16.40;87.20
10042;DHT22;5061;49.068;12.058;2023-05-09T19:50:24;16.30;85.90
10042;DHT22;5061;49.068;12.058;2023-05-09T19:53:45;16.20;85.50
10042;DHT22;5061;49.068;12.058;2023-05-09T19:57:06;16.10;85.50
10042;DHT22;5061;49.068;12.058;2023-05-09T20:00:27;16.10;85.60
10042;DHT22;5061;49.068;12.058;2023-05-09T20:03:48;16.00;90.20
10042;DHT22;5061;49.068;12.058;2023-05-09T20:07:12;15.90;88.60
10042;DHT22;5061;49.068;12.058;2023-05-09T20:10:33;15.80;86.70
10042;DHT22;5061;49.068;12.058;2023-05-09T20:13:54;15.80;87.40
10042;DHT22;5061;49.068;12.058;2023-05-09T20:17:16;15.70;86.20
10042;DHT22;5061;49.068;12.058;2023-05-09T20:20:37;15.60;87.30
10042;DHT22;5061;49.068;12.058;2023-05-09T20:23:58;15.50;88.70
10042;DHT22;5061;49.068;12.058;2023-05-09T20:27:19;15.40;89.70
10042;DHT22;5061;49.068;12.058;2023-05-09T20:30:41;15.40;89.60
10042;DHT22;5061;49.068;12.058;2023-05-09T20:34:02;15.30;92.30
10042;DHT22;5061;49.068;12.058;2023-05-09T20:37:23;15.30;91.30
10042;DHT22;5061;49.068;12.058;2023-05-09T20:40:47;15.20;90.40
10042;DHT22;5061;49.068;12.058;2023-05-09T20:44:08;15.20;90.60
10042;DHT22;5061;49.068;12.058;2023-05-09T20:47:29;15.20;90.30
10042;DHT22;5061;49.068;12.058;2023-05-09T20:50:50;15.20;90.00
10042;DHT22;5061;49.068;12.058;2023-05-09T20:54:16;15.10;91.00
10042;DHT22;5061;49.068;12.058;2023-05-09T20:57:40;15.00;91.10
10042;DHT22;5061;49.068;12.058;2023-05-09T21:01:01;15.00;90.20
10042;DHT22;5061;49.068;12.058;2023-05-09T21:04:25;15.00;90.50
10042;DHT22;5061;49.068;12.058;2023-05-09T21:07:49;15.00;90.30
10042;DHT22;5061;49.068;12.058;2023-05-09T21:11:10;14.90;91.00
10042;DHT22;5061;49.068;12.058;2023-05-09T21:14:34;14.90;90.30
10042;DHT22;5061;49.068;12.058;2023-05-09T21:17:55;14.90;90.40
10042;DHT22;5061;49.068;12.058;2023-05-09T21:21:16;14.80;90.50
10042;DHT22;5061;49.068;12.058;2023-05-09T21:24:37;14.80;90.70
10042;DHT22;5061;49.068;12.058;2023-05-09T21:27:58;14.80;90.80
10042;DHT22;5061;49.068;12.058;2023-05-09T21:31:19;14.70;91.10